Time;durP1;ratioP1;P1;durP2;ratioP2;P2;SDS_P1;SDS_P2;PMS_P1;PMS_P2;Temp;Humidity;BMP_temperature;BMP_pressure;BME280_temperature;BME280_humidity;BME280_pressure;Samples;Min_cycle;Max_cycle;Signal;HPM_P1;HPM_P2
2023/06/07 00:00:52;;;;;;;;;;;;;;;13.25;61.67;100101.34;5042349;28;19944;-71
2023/06/07 00:03:19;;;;;;;;;;;;;;;13.25;61.37;100098.59;5030109;28;19935;-72
2023/06/07 00:05:45;;;;;;;;;;;;;;;13.25;61.40;100102.19;5061957;28;20358;-78
2023/06/07 00:08:11;;;;;;;;;;;;;;;13.24;61.36;100091.47;5044211;28;19925;-78
2023/06/07 00:10:37;;;;;;;;;;;;;;;13.22;61.36;100090.94;5043354;28;20027;-78
2023/06/07 00:13:04;;;;;;;;;;;;;;;13.19;61.42;100095.09;5038179;28;19925;-77
2023/06/07 00:15:30;;;;;;;;;;;;;;;13.16;61.71;100093.72;5034185;28;20015;-77
2023/06/07 00:17:59;;;;;;;;;;;;;;;13.11;61.71;100090.19;5041311;28;20039;-77
2023/06/07 00:20:25;;;;;;;;;;;;;;;13.07;62.00;100092.69;5042379;28;20010;-72
2023/06/07 00:22:55;;;;;;;;;;;;;;;13.03;62.08;100094.38;5035133;28;19960;-71
2023/06/07 00:25:21;;;;;;;;;;;;;;;12.98;62.34;100097.16;5029652;28;19929;-71
2023/06/07 00:27:46;;;;;;;;;;;;;;;12.94;62.58;100088.66;5069485;28;19939;-71
2023/06/07 00:30:17;;;;;;;;;;;;;;;12.93;62.44;100098.00;5043768;28;19931;-71
2023/06/07 00:32:42;;;;;;;;;;;;;;;12.96;62.08;100099.34;5042380;28;20437;-71
2023/06/07 00:35:11;;;;;;;;;;;;;;;12.96;62.05;100102.09;5043422;28;19928;-71
2023/06/07 00:37:37;;;;;;;;;;;;;;;12.96;62.32;100099.34;5039492;28;19928;-71
2023/06/07 00:40:05;;;;;;;;;;;;;;;12.97;62.06;100101.81;5006925;28;20293;-71
2023/06/07 00:42:31;;;;;;;;;;;;;;;13.00;61.77;100095.75;5038494;28;19924;-71
2023/06/07 00:44:57;;;;;;;;;;;;;;;13.01;61.87;100094.63;5035534;28;20165;-71
2023/06/07 00:47:25;;;;;;;;;;;;;;;12.94;62.06;100099.63;5039601;28;19924;-71
2023/06/07 00:49:50;;;;;;;;;;;;;;;12.93;62.21;100108.13;5043035;28;19964;-71
2023/06/07 00:52:16;;;;;;;;;;;;;;;12.92;62.07;100104.59;5021529;28;20462;-71
2023/06/07 00:54:44;;;;;;;;;;;;;;;12.89;62.44;100108.72;5037344;28;19936;-71
2023/06/07 00:57:10;;;;;;;;;;;;;;;12.87;62.49;100102.69;5020970;28;19924;-71
2023/06/07 00:59:37;;;;;;;;;;;;;;;12.82;63.01;100108.22;5041686;28;19929;-72
2023/06/07 01:02:04;;;;;;;;;;;;;;;12.79;63.10;100111.50;5041717;28;20023;-72
2023/06/07 01:04:31;;;;;;;;;;;;;;;12.80;62.85;100117.81;5036325;28;19925;-71
2023/06/07 01:06:58;;;;;;;;;;;;;;;12.76;62.97;100109.31;5038185;28;19925;-71
2023/06/07 01:09:24;;;;;;;;;;;;;;;12.74;63.12;100111.53;5038968;28;19979;-71
2023/06/07 01:11:51;;;;;;;;;;;;;;;12.70;63.50;100107.72;5039951;28;20439;-72
2023/06/07 01:14:18;;;;;;;;;;;;;;;12.71;63.32;100107.41;5036464;28;19925;-70
2023/06/07 01:16:44;;;;;;;;;;;;;;;12.74;63.05;100108.78;5038610;28;19925;-71
2023/06/07 01:19:14;;;;;;;;;;;;;;;12.79;62.72;100108.75;5039826;28;19935;-71
2023/06/07 01:21:42;;;;;;;;;;;;;;;12.82;62.54;100121.09;5040835;28;19964;-71
2023/06/07 01:24:10;;;;;;;;;;;;;;;12.80;62.56;100107.69;5024966;28;19925;-71
2023/06/07 01:26:36;;;;;;;;;;;;;;;12.79;62.62;100099.72;5027150;28;20016;-71
2023/06/07 01:29:05;;;;;;;;;;;;;;;12.82;62.58;100099.16;5033429;28;19924;-72
2023/06/07 01:31:33;;;;;;;;;;;;;;;12.84;62.16;100111.50;5035878;28;19970;-73
2023/06/07 01:33:59;;;;;;;;;;;;;;;12.88;62.11;100096.09;5034992;28;19924;-72
2023/06/07 01:36:29;;;;;;;;;;;;;;;12.90;62.23;100101.31;5016002;28;20292;-72
2023/06/07 01:38:55;;;;;;;;;;;;;;;12.94;62.23;100096.06;5039017;28;19931;-73
2023/06/07 01:41:25;;;;;;;;;;;;;;;12.96;62.07;100096.63;5040508;28;20354;-72
2023/06/07 01:43:51;;;;;;;;;;;;;;;12.99;61.78;100090.56;5032867;28;20380;-71
2023/06/07 01:46:17;;;;;;;;;;;;;;;13.01;61.91;100104.81;5041133;28;20011;-72
2023/06/07 01:48:42;;;;;;;;;;;;;;;13.03;61.69;100102.59;5042701;28;20031;-71
2023/06/07 01:51:08;;;;;;;;;;;;;;;13.05;61.77;100100.38;5043511;28;19955;-71
2023/06/07 01:53:34;;;;;;;;;;;;;;;13.07;61.60;100103.66;5038548;28;20375;-72
2023/06/07 01:56:05;;;;;;;;;;;;;;;13.08;61.77;100102.56;5033687;28;20002;-71
2023/06/07 01:58:34;;;;;;;;;;;;;;;13.09;62.08;100109.69;5056941;28;19925;-71
2023/06/07 02:01:06;;;;;;;;;;;;;;;13.11;61.42;100106.66;5036089;28;19925;-72
2023/06/07 02:03:33;;;;;;;;;;;;;;;13.17;61.05;100100.03;5039618;28;19928;-72
2023/06/07 02:06:01;;;;;;;;;;;;;;;13.23;60.71;100106.31;5042637;28;19998;-71
2023/06/07 02:08:29;;;;;;;;;;;;;;;13.27;60.29;100101.91;5017034;28;19925;-72
2023/06/07 02:10:55;;;;;;;;;;;;;;;13.30;60.22;100102.13;5042634;28;19935;-70
2023/06/07 02:13:21;;;;;;;;;;;;;;;13.35;60.17;100104.03;5037903;28;19929;-70
2023/06/07 02:15:48;;;;;;;;;;;;;;;13.38;59.97;100102.66;5042077;28;19931;-70
2023/06/07 02:18:18;;;;;;;;;;;;;;;13.39;60.01;100102.34;5005927;28;19931;-71
2023/06/07 02:20:44;;;;;;;;;;;;;;;13.43;59.93;100106.22;5034497;28;20462;-71
2023/06/07 02:23:10;;;;;;;;;;;;;;;13.46;59.77;100102.88;5039534;28;19925;-71
2023/06/07 02:25:36;;;;;;;;;;;;;;;13.51;59.70;100098.44;5035828;28;19928;-72
2023/06/07 02:28:02;;;;;;;;;;;;;;;13.56;59.34;100103.88;5039117;28;20378;-71
2023/06/07 02:30:28;;;;;;;;;;;;;;;13.61;59.22;100103.88;5031103;28;19983;-71
2023/06/07 02:32:56;;;;;;;;;;;;;;;13.67;59.04;100110.13;5036103;28;20443;-71
2023/06/07 02:35:22;;;;;;;;;;;;;;;13.72;58.98;100107.34;5040148;28;19928;-71
2023/06/07 02:37:47;;;;;;;;;;;;;;;13.76;59.33;100105.63;5039457;28;20030;-71
2023/06/07 02:40:14;;;;;;;;;;;;;;;13.81;59.02;100107.53;5040508;28;20027;-73
2023/06/07 02:42:42;;;;;;;;;;;;;;;13.85;58.91;100098.44;5034890;28;19932;-71
2023/06/07 02:45:09;;;;;;;;;;;;;;;13.91;58.55;100099.19;5040131;28;19971;-71
2023/06/07 02:47:36;;;;;;;;;;;;;;;13.95;58.22;100097.50;5074380;28;19979;-73
2023/06/07 02:50:05;;;;;;;;;;;;;;;13.98;58.15;100102.41;5039144;28;19970;-71
2023/06/07 02:52:31;;;;;;;;;;;;;;;14.02;58.47;100099.91;5039933;28;19971;-71
2023/06/07 02:54:57;;;;;;;;;;;;;;;14.06;58.83;100098.22;5055064;28;20386;-72
2023/06/07 02:57:23;;;;;;;;;;;;;;;14.12;58.74;100099.78;5023413;28;19971;-72
2023/06/07 02:59:48;;;;;;;;;;;;;;;14.15;58.50;100099.22;5035038;28;20499;-73
2023/06/07 03:02:20;;;;;;;;;;;;;;;14.21;58.45;100102.75;5038276;28;20601;-72
2023/06/07 03:04:48;;;;;;;;;;;;;;;14.25;58.15;100092.78;5033798;28;20314;-72
2023/06/07 03:07:16;;;;;;;;;;;;;;;14.32;58.14;100092.44;5038486;28;20319;-72
2023/06/07 03:09:43;;;;;;;;;;;;;;;14.39;57.66;100092.09;5040311;28;19912;-71
2023/06/07 03:12:10;;;;;;;;;;;;;;;14.46;57.63;100090.63;5038940;28;19924;-71
2023/06/07 03:14:42;;;;;;;;;;;;;;;14.54;57.47;100091.91;5021112;28;19959;-71
2023/06/07 03:17:11;;;;;;;;;;;;;;;14.61;57.26;100086.84;5055839;28;19929;-72
2023/06/07 03:19:38;;;;;;;;;;;;;;;14.70;57.00;100089.75;5020854;28;19925;-72
2023/06/07 03:22:06;;;;;;;;;;;;;;;14.76;56.33;100087.78;5041132;28;19925;-71
2023/06/07 03:24:36;;;;;;;;;;;;;;;14.82;55.76;100091.28;5073274;28;19925;-71
2023/06/07 03:27:03;;;;;;;;;;;;;;;14.85;55.67;100096.19;5035620;28;20160;-72
2023/06/07 03:29:30;;;;;;;;;;;;;;;14.85;55.39;100094.28;5038627;28;20417;-72
2023/06/07 03:31:56;;;;;;;;;;;;;;;14.89;55.53;100098.06;5051688;28;19929;-72
2023/06/07 03:34:23;;;;;;;;;;;;;;;14.97;55.21;100093.81;5022801;28;19971;-71
2023/06/07 03:36:49;;;;;;;;;;;;;;;15.03;55.05;100098.13;5040500;28;19970;-72
2023/06/07 03:39:16;;;;;;;;;;;;;;;15.10;55.10;100097.75;5039607;28;20315;-72
2023/06/07 03:41:44;;;;;;;;;;;;;;;15.15;54.74;100096.88;5030477;28;19925;-72
2023/06/07 03:44:13;;;;;;;;;;;;;;;15.16;54.46;100104.03;5045242;28;19956;-71
2023/06/07 03:46:40;;;;;;;;;;;;;;;15.16;54.11;100102.09;5040810;28;19924;-72
2023/06/07 03:49:06;;;;;;;;;;;;;;;15.21;54.60;100103.13;5033571;28;19978;-72
2023/06/07 03:51:33;;;;;;;;;;;;;;;15.32;54.03;100101.88;5012876;28;19929;-72
2023/06/07 03:54:00;;;;;;;;;;;;;;;15.38;53.68;100102.59;5041539;28;20043;-72
2023/06/07 03:56:27;;;;;;;;;;;;;;;15.38;53.58;100099.84;5030401;28;19935;-78
2023/06/07 03:58:55;;;;;;;;;;;;;;;15.36;53.39;100102.06;5033045;28;20402;-78
2023/06/07 04:01:25;;;;;;;;;;;;;;;15.37;53.71;100104.53;5061293;28;19925;-78
2023/06/07 04:03:52;;;;;;;;;;;;;;;15.40;53.28;100103.13;5043149;28;19925;-79
2023/06/07 04:06:20;;;;;;;;;;;;;;;15.42;53.09;100103.63;5044815;28;19930;-79
2023/06/07 04:08:46;;;;;;;;;;;;;;;15.48;53.36;100096.91;5032790;28;19954;-79
2023/06/07 04:11:12;;;;;;;;;;;;;;;15.52;53.06;100097.13;5048480;28;20454;-79
2023/06/07 04:13:41;;;;;;;;;;;;;;;15.58;53.05;100098.69;5035071;28;19924;-79
2023/06/07 04:16:09;;;;;;;;;;;;;;;15.64;53.24;100107.69;5046451;28;19928;-78
2023/06/07 04:18:35;;;;;;;;;;;;;;;15.67;53.18;100105.16;5045628;28;19924;-78
2023/06/07 04:21:01;;;;;;;;;;;;;;;15.73;53.00;100103.94;5048636;28;20392;-78
2023/06/07 04:23:29;;;;;;;;;;;;;;;15.79;52.67;100103.84;5011231;28;19925;-78
2023/06/07 04:25:55;;;;;;;;;;;;;;;15.84;52.52;100104.59;5038453;28;19948;-78
2023/06/07 04:28:23;;;;;;;;;;;;;;;15.89;52.39;100100.94;5041296;28;19983;-79
2023/06/07 04:30:56;;;;;;;;;;;;;;;15.94;52.28;100100.03;5047626;28;19963;-79
2023/06/07 04:33:24;;;;;;;;;;;;;;;15.95;51.80;100096.16;5051450;28;20411;-71
2023/06/07 04:35:50;;;;;;;;;;;;;;;16.00;51.93;100099.63;5036378;28;19951;-72
2023/06/07 04:38:21;;;;;;;;;;;;;;;16.08;51.59;100097.28;5027933;28;20011;-72
2023/06/07 04:40:49;;;;;;;;;;;;;;;16.08;51.36;100089.00;5027187;28;20323;-72
2023/06/07 04:43:20;;;;;;;;;;;;;;;16.09;51.42;100099.75;5041230;28;19928;-71
2023/06/07 04:45:55;;;;;;;;;;;;;;;16.16;51.43;100096.59;5038867;28;19960;-72
2023/06/07 04:48:25;;;;;;;;;;;;;;;16.25;51.36;100094.75;5034785;28;19978;-72
2023/06/07 04:50:52;;;;;;;;;;;;;;;16.36;51.28;100094.53;5028492;28;19924;-72
2023/06/07 04:53:19;;;;;;;;;;;;;;;16.41;50.77;100088.94;5041273;28;19931;-72
2023/06/07 04:55:47;;;;;;;;;;;;;;;16.49;50.57;100082.69;5042506;28;19924;-79
2023/06/07 04:58:16;;;;;;;;;;;;;;;16.62;50.70;100080.22;5045598;28;19925;-79
2023/06/07 05:00:41;;;;;;;;;;;;;;;16.71;50.30;100084.69;5027059;28;19971;-78
2023/06/07 05:03:21;;;;;;;;;;;;;;;16.80;50.17;100079.25;5037031;28;19931;-78
2023/06/07 05:05:51;;;;;;;;;;;;;;;16.89;50.22;100084.88;5041002;28;20315;-78
2023/06/07 05:08:17;;;;;;;;;;;;;;;16.96;50.07;100089.97;5042183;28;19928;-78
2023/06/07 05:10:43;;;;;;;;;;;;;;;17.00;49.27;100086.31;5023842;28;19993;-78
2023/06/07 05:13:09;;;;;;;;;;;;;;;17.01;49.01;100085.19;5020760;28;19924;-78
2023/06/07 05:15:35;;;;;;;;;;;;;;;17.08;49.21;100084.75;5040932;28;19931;-71
2023/06/07 05:18:02;;;;;;;;;;;;;;;17.16;49.00;100085.94;5040187;28;19966;-72
2023/06/07 05:20:28;;;;;;;;;;;;;;;17.25;48.59;100080.50;5023469;28;19986;-72
2023/06/07 05:22:59;;;;;;;;;;;;;;;17.33;48.22;100085.28;5035002;28;19932;-72
2023/06/07 05:25:26;;;;;;;;;;;;;;;17.44;47.95;100078.34;5042092;28;20392;-71
2023/06/07 05:27:52;;;;;;;;;;;;;;;17.57;48.00;100089.66;5036919;28;19968;-71
2023/06/07 05:30:19;;;;;;;;;;;;;;;17.68;47.72;100087.44;5041291;28;20019;-72
2023/06/07 05:32:45;;;;;;;;;;;;;;;17.71;47.90;100078.53;5040033;28;19968;-72
2023/06/07 05:35:11;;;;;;;;;;;;;;;17.77;47.43;100084.72;5043007;28;19924;-72
2023/06/07 05:37:42;;;;;;;;;;;;;;;17.84;47.39;100076.81;5043831;28;19929;-72
2023/06/07 05:40:11;;;;;;;;;;;;;;;17.88;46.91;100071.47;5031064;28;19929;-79
2023/06/07 05:42:38;;;;;;;;;;;;;;;17.94;46.27;100072.97;5040231;28;20335;-79
2023/06/07 05:45:07;;;;;;;;;;;;;;;17.97;46.63;100078.69;5043308;28;19939;-79
2023/06/07 05:47:34;;;;;;;;;;;;;;;17.97;46.37;100072.31;5040954;28;19924;-78
2023/06/07 05:50:00;;;;;;;;;;;;;;;18.04;45.93;100071.91;5025688;28;20326;-78
2023/06/07 05:52:26;;;;;;;;;;;;;;;18.13;46.01;100062.50;5053677;28;20492;-78
2023/06/07 05:54:54;;;;;;;;;;;;;;;18.20;45.88;100070.31;5034127;28;19956;-78
2023/06/07 05:57:21;;;;;;;;;;;;;;;18.20;43.62;100064.78;5037898;28;19925;-80
2023/06/07 05:59:47;;;;;;;;;;;;;;;18.22;44.08;100064.50;5032141;28;20296;-79
2023/06/07 06:02:15;;;;;;;;;;;;;;;18.27;43.82;100067.09;5034434;28;19924;-79
2023/06/07 06:04:41;;;;;;;;;;;;;;;18.35;43.33;100066.31;5038441;28;19929;-79
2023/06/07 06:07:06;;;;;;;;;;;;;;;18.37;42.82;100068.75;5036963;28;20480;-78
2023/06/07 06:09:32;;;;;;;;;;;;;;;18.41;43.15;100064.19;5035544;28;19925;-78
2023/06/07 06:11:59;;;;;;;;;;;;;;;18.47;43.26;100067.63;5034133;28;19924;-79
2023/06/07 06:14:26;;;;;;;;;;;;;;;18.51;43.49;100050.06;5017549;28;19960;-77
2023/06/07 06:16:52;;;;;;;;;;;;;;;18.61;43.20;100054.47;5035431;28;20494;-78
2023/06/07 06:19:18;;;;;;;;;;;;;;;18.71;43.33;100047.81;5040201;28;19970;-79
2023/06/07 06:21:44;;;;;;;;;;;;;;;18.90;42.83;100057.78;5042888;28;19924;-79
2023/06/07 06:24:10;;;;;;;;;;;;;;;19.09;42.11;100065.78;5043814;28;19924;-78
2023/06/07 06:26:35;;;;;;;;;;;;;;;19.25;41.83;100058.59;5042415;28;19947;-79
2023/06/07 06:29:01;;;;;;;;;;;;;;;19.35;41.57;100051.91;5039154;28;20254;-80
2023/06/07 06:31:29;;;;;;;;;;;;;;;19.54;41.37;100048.00;5037760;28;20392;-79
2023/06/07 06:33:55;;;;;;;;;;;;;;;19.69;41.05;100047.47;5042189;28;20383;-79
2023/06/07 06:36:24;;;;;;;;;;;;;;;19.74;40.35;100045.66;5043202;28;19931;-78
2023/06/07 06:38:51;;;;;;;;;;;;;;;19.74;41.01;100048.41;5018001;28;19925;-80
2023/06/07 06:41:16;;;;;;;;;;;;;;;19.78;40.83;100046.59;5043037;28;19929;-78
2023/06/07 06:43:44;;;;;;;;;;;;;;;19.83;40.83;100035.34;4992963;28;20339;-77
2023/06/07 06:46:12;;;;;;;;;;;;;;;19.87;40.63;100033.53;5014648;28;19931;-79
2023/06/07 06:48:41;;;;;;;;;;;;;;;19.95;40.81;100043.78;5029744;28;19936;-78
2023/06/07 06:51:06;;;;;;;;;;;;;;;20.08;40.54;100041.13;5029738;28;19941;-77
2023/06/07 06:53:33;;;;;;;;;;;;;;;20.06;40.73;100041.50;5026842;28;20022;-79
2023/06/07 06:55:58;;;;;;;;;;;;;;;20.07;40.80;100045.06;5039268;28;19929;-72
2023/06/07 06:58:24;;;;;;;;;;;;;;;20.22;40.43;100032.59;5043756;28;19925;-71
2023/06/07 07:00:50;;;;;;;;;;;;;;;20.25;40.43;100038.28;5039689;28;19925;-72
2023/06/07 07:03:16;;;;;;;;;;;;;;;20.40;39.88;100039.69;5042522;28;19928;-73
2023/06/07 07:05:44;;;;;;;;;;;;;;;20.57;39.70;100028.78;5041923;28;19924;-71
2023/06/07 07:08:09;;;;;;;;;;;;;;;20.60;39.54;100034.47;5036732;28;19924;-72
2023/06/07 07:10:35;;;;;;;;;;;;;;;20.68;39.59;100032.78;5026763;28;19974;-72
2023/06/07 07:13:01;;;;;;;;;;;;;;;20.78;38.62;100035.19;5040105;28;19931;-73
2023/06/07 07:15:28;;;;;;;;;;;;;;;20.74;38.31;100053.66;5048202;28;19956;-73
2023/06/07 07:17:55;;;;;;;;;;;;;;;20.62;38.56;100034.16;5060669;28;19928;-72
2023/06/07 07:20:22;;;;;;;;;;;;;;;20.54;38.02;100030.28;5043991;28;19928;-72
2023/06/07 07:22:50;;;;;;;;;;;;;;;20.49;37.60;100041.56;5046025;28;19925;-72
2023/06/07 07:25:16;;;;;;;;;;;;;;;20.51;37.87;100037.31;5039028;28;20320;-79
2023/06/07 07:27:42;;;;;;;;;;;;;;;20.63;37.60;100033.81;5044785;28;19924;-79
2023/06/07 07:30:09;;;;;;;;;;;;;;;20.73;37.30;100026.22;5049889;28;19932;-78
2023/06/07 07:32:42;;;;;;;;;;;;;;;20.71;37.01;100023.78;5050673;28;19928;-78
2023/06/07 07:35:08;;;;;;;;;;;;;;;20.91;37.52;100019.41;5048106;28;20355;-71
2023/06/07 07:37:35;;;;;;;;;;;;;;;21.20;36.89;100012.13;5047941;28;19982;-79
2023/06/07 07:40:05;;;;;;;;;;;;;;;21.42;36.17;100017.63;5014750;28;19978;-78
2023/06/07 07:42:31;;;;;;;;;;;;;;;21.55;36.14;100013.75;5032392;28;19970;-80
2023/06/07 07:44:57;;;;;;;;;;;;;;;21.51;35.50;100021.94;5044172;28;19928;-79
2023/06/07 07:47:23;;;;;;;;;;;;;;;21.65;35.38;100020.81;5044965;28;19925;-72
2023/06/07 07:49:51;;;;;;;;;;;;;;;22.15;35.13;100010.56;5030760;28;19925;-78
2023/06/07 07:52:17;;;;;;;;;;;;;;;22.71;34.41;100006.34;5045829;28;19928;-79
2023/06/07 07:54:44;;;;;;;;;;;;;;;23.05;33.31;100000.53;5043282;28;19931;-72
2023/06/07 07:57:11;;;;;;;;;;;;;;;23.40;32.76;99996.31;5007915;28;19931;-79
2023/06/07 07:59:37;;;;;;;;;;;;;;;23.77;32.80;100001.66;5044303;28;19928;-79
2023/06/07 08:02:03;;;;;;;;;;;;;;;23.81;32.41;100015.72;5028007;28;19925;-79
2023/06/07 08:04:29;;;;;;;;;;;;;;;23.23;32.36;100007.41;5047263;28;20458;-79
2023/06/07 08:06:55;;;;;;;;;;;;;;;23.01;32.25;99994.03;5040897;28;20394;-72
2023/06/07 08:09:21;;;;;;;;;;;;;;;22.94;32.43;99998.25;5043739;28;19929;-80
2023/06/07 08:11:47;;;;;;;;;;;;;;;22.95;32.12;100010.22;5045105;28;19928;-79
2023/06/07 08:14:15;;;;;;;;;;;;;;;23.09;31.98;99999.44;5046651;28;19925;-79
2023/06/07 08:16:41;;;;;;;;;;;;;;;23.33;31.40;99994.13;5042966;28;21088;-78
2023/06/07 08:19:07;;;;;;;;;;;;;;;23.42;30.97;100013.53;5048015;28;20307;-79
2023/06/07 08:21:33;;;;;;;;;;;;;;;23.00;31.25;99995.19;5033820;28;19928;-79
2023/06/07 08:23:59;;;;;;;;;;;;;;;22.48;32.42;99995.72;5037292;28;20367;-78
2023/06/07 08:26:25;;;;;;;;;;;;;;;22.27;33.03;99997.78;5047010;28;19925;-78
2023/06/07 08:28:51;;;;;;;;;;;;;;;22.66;32.53;99984.28;5045779;28;20414;-79
2023/06/07 08:31:22;;;;;;;;;;;;;;;23.29;31.58;99982.06;5039777;28;20037;-79
2023/06/07 08:33:48;;;;;;;;;;;;;;;22.92;31.68;99988.59;5046702;28;19925;-78
2023/06/07 08:36:15;;;;;;;;;;;;;;;22.61;32.35;99995.66;5047314;28;19931;-78
2023/06/07 08:38:41;;;;;;;;;;;;;;;23.18;32.11;99979.78;5044577;28;19931;-78
2023/06/07 08:41:07;;;;;;;;;;;;;;;24.15;30.62;99980.66;5034220;28;19929;-79
2023/06/07 08:43:33;;;;;;;;;;;;;;;24.45;29.49;99971.75;5045148;28;20569;-79
2023/06/07 08:46:03;;;;;;;;;;;;;;;24.48;29.70;99981.41;5044453;28;19924;-79
2023/06/07 08:48:31;;;;;;;;;;;;;;;24.81;29.07;99976.53;5045806;28;19931;-78
2023/06/07 08:50:57;;;;;;;;;;;;;;;24.73;28.48;99970.75;5047843;28;20387;-79
2023/06/07 08:53:26;;;;;;;;;;;;;;;24.04;29.60;99985.19;5045256;28;20380;-79
2023/06/07 08:55:53;;;;;;;;;;;;;;;23.01;30.87;99961.41;5036664;28;19924;-78
2023/06/07 08:58:20;;;;;;;;;;;;;;;22.39;32.32;99973.50;5038880;28;19925;-79
2023/06/07 09:00:46;;;;;;;;;;;;;;;22.73;32.10;99962.19;5042252;28;19925;-71
2023/06/07 09:03:12;;;;;;;;;;;;;;;23.34;30.88;99962.31;5033232;28;19956;-71
2023/06/07 09:05:39;;;;;;;;;;;;;;;23.29;30.76;99959.78;5030447;28;20914;-73
2023/06/07 09:08:05;;;;;;;;;;;;;;;23.69;30.40;99966.34;5027114;28;19925;-72
2023/06/07 09:10:31;;;;;;;;;;;;;;;24.05;30.14;99954.13;5044906;28;19924;-72
2023/06/07 09:12:57;;;;;;;;;;;;;;;24.34;29.75;99954.78;5041351;28;20323;-73
2023/06/07 09:15:23;;;;;;;;;;;;;;;25.34;28.56;99953.56;5037561;28;19964;-72
2023/06/07 09:17:52;;;;;;;;;;;;;;;25.55;28.39;99944.78;5042702;28;19925;-72
2023/06/07 09:20:19;;;;;;;;;;;;;;;26.24;27.36;99945.84;5042219;28;19925;-72
2023/06/07 09:22:54;;;;;;;;;;;;;;;27.00;26.56;99944.00;5042728;28;19932;-72
2023/06/07 09:25:20;;;;;;;;;;;;;;;26.83;26.68;99941.78;5042424;28;19947;-72
2023/06/07 09:27:49;;;;;;;;;;;;;;;26.24;26.81;99940.25;5040252;28;19928;-71
2023/06/07 09:30:17;;;;;;;;;;;;;;;26.48;26.47;99958.59;5044204;28;20414;-72
2023/06/07 09:32:43;;;;;;;;;;;;;;;26.78;25.98;99945.75;5037702;28;19925;-72
2023/06/07 09:35:12;;;;;;;;;;;;;;;25.93;26.92;99938.59;5037406;28;20293;-72
2023/06/07 09:37:40;;;;;;;;;;;;;;;24.67;28.18;99930.31;5007190;28;19966;-72
2023/06/07 09:40:08;;;;;;;;;;;;;;;23.75;29.64;99937.81;5034978;28;20454;-80
2023/06/07 09:42:34;;;;;;;;;;;;;;;23.20;30.55;99932.84;5040605;28;19928;-81
2023/06/07 09:45:08;;;;;;;;;;;;;;;23.16;31.07;99936.69;5023672;28;19990;-80
2023/06/07 09:47:33;;;;;;;;;;;;;;;24.01;29.65;99930.88;5038447;28;20053;-79
2023/06/07 09:50:05;;;;;;;;;;;;;;;25.31;28.30;99929.97;5032698;28;20019;-78
2023/06/07 09:52:30;;;;;;;;;;;;;;;26.00;27.01;99931.09;5044820;28;20308;-80
2023/06/07 09:54:56;;;;;;;;;;;;;;;24.76;27.78;99918.94;5027349;28;19924;-80
2023/06/07 09:57:30;;;;;;;;;;;;;;;23.70;29.29;99937.28;5044367;28;19926;-79
2023/06/07 09:59:58;;;;;;;;;;;;;;;22.76;31.08;99935.63;5031557;28;19968;-78
2023/06/07 10:02:24;;;;;;;;;;;;;;;22.58;31.69;99929.50;5032284;28;19965;-79
2023/06/07 10:04:53;;;;;;;;;;;;;;;23.72;29.91;99920.97;5034302;28;19925;-79
2023/06/07 10:07:19;;;;;;;;;;;;;;;24.17;29.24;99916.09;5061910;28;19929;-79
2023/06/07 10:09:47;;;;;;;;;;;;;;;23.93;29.81;99920.69;5044913;28;19959;-79
2023/06/07 10:12:13;;;;;;;;;;;;;;;23.26;30.08;99918.63;5033048;28;20391;-79
2023/06/07 10:14:44;;;;;;;;;;;;;;;22.66;30.81;99909.88;5034945;28;19925;-79
2023/06/07 10:17:10;;;;;;;;;;;;;;;22.72;31.13;99909.63;5027100;28;20055;-78
2023/06/07 10:19:40;;;;;;;;;;;;;;;24.11;29.84;99909.16;5040845;28;19924;-79
2023/06/07 10:22:08;;;;;;;;;;;;;;;26.27;26.55;99914.28;5045120;28;19924;-78
2023/06/07 10:24:39;;;;;;;;;;;;;;;27.10;24.62;99906.06;5046045;28;19929;-79
2023/06/07 10:27:09;;;;;;;;;;;;;;;27.42;24.49;99888.72;5044675;28;19928;-80
2023/06/07 10:29:38;;;;;;;;;;;;;;;28.18;22.90;99910.97;5034507;28;20071;-79
2023/06/07 10:32:08;;;;;;;;;;;;;;;27.66;23.28;99891.34;5041848;28;20387;-72
2023/06/07 10:34:36;;;;;;;;;;;;;;;26.02;25.03;99892.31;5041636;28;19924;-72
2023/06/07 10:37:02;;;;;;;;;;;;;;;24.83;26.75;99879.94;5042912;28;19970;-72
2023/06/07 10:39:28;;;;;;;;;;;;;;;23.93;28.19;99887.19;5059674;28;20431;-78
2023/06/07 10:41:56;;;;;;;;;;;;;;;23.72;29.41;99884.69;5043453;28;20023;-71
2023/06/07 10:44:23;;;;;;;;;;;;;;;25.70;25.48;99891.81;5045364;28;19937;-80
2023/06/07 10:46:49;;;;;;;;;;;;;;;26.13;24.97;99878.44;5041463;28;19934;-80
2023/06/07 10:49:30;;;;;;;;;;;;;;;27.15;23.66;99872.03;5024023;28;19929;-79
2023/06/07 10:52:06;;;;;;;;;;;;;;;27.64;22.83;99862.84;5041292;28;19931;-78
2023/06/07 10:54:32;;;;;;;;;;;;;;;26.09;24.69;99888.81;5039989;28;19928;-78
2023/06/07 10:57:02;;;;;;;;;;;;;;;26.32;24.37;99874.72;5039621;28;19925;-79
2023/06/07 10:59:28;;;;;;;;;;;;;;;27.32;23.09;99855.75;5040958;28;20296;-80
2023/06/07 11:02:15;;;;;;;;;;;;;;;26.08;24.30;99850.78;5029224;28;19986;-71
2023/06/07 11:04:51;;;;;;;;;;;;;;;25.66;25.45;99860.97;5038513;28;19920;-79
2023/06/07 11:07:22;;;;;;;;;;;;;;;25.62;25.44;99848.91;5031752;28;20394;-79
2023/06/07 11:09:48;;;;;;;;;;;;;;;26.30;24.55;99871.50;5024661;28;19971;-78
2023/06/07 11:12:40;;;;;;;;;;;;;;;26.08;24.99;99839.56;5041529;28;19928;-79
2023/06/07 11:15:30;;;;;;;;;;;;;;;26.70;24.33;99829.09;5010316;28;19925;-71
2023/06/07 11:17:57;;;;;;;;;;;;;;;26.18;25.55;99852.94;5039801;28;20076;-72
2023/06/07 11:20:44;;;;;;;;;;;;;;;25.80;25.46;99846.41;5024417;28;19925;-72
2023/06/07 11:23:21;;;;;;;;;;;;;;;25.65;25.53;99831.38;5037355;28;19966;-71
2023/06/07 11:25:47;;;;;;;;;;;;;;;26.19;24.63;99837.72;5040032;28;20459;-79
2023/06/07 11:28:13;;;;;;;;;;;;;;;26.09;24.83;99824.38;5032334;28;20027;-80
2023/06/07 11:30:41;;;;;;;;;;;;;;;27.31;23.63;99812.03;5035155;28;19939;-79
2023/06/07 11:33:07;;;;;;;;;;;;;;;27.36;23.40;99806.06;4995260;28;19971;-80
2023/06/07 11:35:33;;;;;;;;;;;;;;;26.39;23.89;99806.75;5061990;28;20420;-79
2023/06/07 11:38:02;;;;;;;;;;;;;;;25.87;24.19;99821.28;5030798;28;19924;-78
2023/06/07 11:40:29;;;;;;;;;;;;;;;26.45;23.27;99810.81;5017933;28;19932;-79
2023/06/07 11:42:55;;;;;;;;;;;;;;;26.80;23.05;99794.75;5025221;28;20493;-78
2023/06/07 11:45:24;;;;;;;;;;;;;;;25.39;24.75;99824.56;5046181;28;19947;-71
2023/06/07 11:47:50;;;;;;;;;;;;;;;24.31;26.93;99815.00;5019105;28;19931;-71
2023/06/07 11:50:16;;;;;;;;;;;;;;;24.43;26.92;99816.84;5034000;28;19925;-71
2023/06/07 11:52:42;;;;;;;;;;;;;;;24.37;27.07;99805.19;5036709;28;19929;-78
2023/06/07 11:55:09;;;;;;;;;;;;;;;26.22;25.01;99812.94;5042104;28;19925;-78
2023/06/07 11:57:38;;;;;;;;;;;;;;;27.55;23.12;99790.16;5040941;28;20023;-72
2023/06/07 12:00:12;;;;;;;;;;;;;;;28.54;22.15;99797.84;5041627;28;20780;-72
2023/06/07 12:02:40;;;;;;;;;;;;;;;27.25;23.39;99791.16;5029479;28;19925;-72
2023/06/07 12:05:06;;;;;;;;;;;;;;;25.81;24.56;99806.00;5043774;28;20276;-72
2023/06/07 12:07:31;;;;;;;;;;;;;;;26.36;24.79;99804.69;5038678;28;19925;-71
2023/06/07 12:09:57;;;;;;;;;;;;;;;27.03;23.74;99789.00;5041137;28;19929;-72
2023/06/07 12:12:23;;;;;;;;;;;;;;;28.43;22.15;99789.38;5033799;28;19932;-72
2023/06/07 12:14:58;;;;;;;;;;;;;;;28.40;21.94;99787.38;5028428;28;20372;-72
2023/06/07 12:17:24;;;;;;;;;;;;;;;29.15;21.14;99791.50;5038665;28;19928;-71
2023/06/07 12:19:49;;;;;;;;;;;;;;;29.40;21.03;99790.69;5046190;28;19933;-72
2023/06/07 12:22:18;;;;;;;;;;;;;;;28.33;22.21;99768.47;5033911;28;19967;-77
2023/06/07 12:24:44;;;;;;;;;;;;;;;27.29;23.45;99781.56;5038284;28;20404;-72
2023/06/07 12:27:12;;;;;;;;;;;;;;;26.95;24.38;99776.09;5034809;28;19924;-78
2023/06/07 12:29:40;;;;;;;;;;;;;;;27.03;24.13;99780.56;5041182;28;20439;-72
2023/06/07 12:32:08;;;;;;;;;;;;;;;28.43;22.95;99781.78;5045201;28;19933;-73
2023/06/07 12:34:34;;;;;;;;;;;;;;;29.76;20.71;99781.38;5032040;28;19925;-79
2023/06/07 12:37:03;;;;;;;;;;;;;;;30.31;19.85;99790.41;5026357;28;20356;-79
2023/06/07 12:39:29;;;;;;;;;;;;;;;30.50;19.96;99789.13;5045622;28;19964;-78
2023/06/07 12:41:55;;;;;;;;;;;;;;;30.46;19.61;99788.34;5044570;28;19925;-79